.
WxDataArchive / Data Records for 2015-08-12
2015-08-11 August 2015 2015-08-13

Data Records for Wednesday, 12 August 2015

Time	Temp	Chill	HIndex	Humid	Dewpt	 Wind 	HiWind	WindDir	Rain 	Barom
-----	----	-----	------	-----	-----	------	------	-------	-----	-----
00:00	66.4	66.4	66.4	78	59.3	0	1	292	0.00	30.004 
00:05	66.4	66.4	66.4	78	59.3	0	4	292	0.00	30.004 
00:10	66.3	66.3	66.3	79	59.6	0	1	292	0.00	30.004 
00:15	66.1	66.1	66.1	79	59.4	0	1	292	0.00	30.007 
00:20	66.0	66.0	66.0	79	59.3	0	2	292	0.00	30.007 
00:25	66.0	66.0	66.0	79	59.3	0	1	292	0.00	30.007 
00:30	65.8	65.8	65.8	80	59.5	0	2	292	0.00	30.010 
00:35	65.6	65.6	65.6	80	59.3	0	1	292	0.00	30.010 
00:40	65.5	65.5	65.5	80	59.2	0	1	292	0.00	30.010 
00:45	65.5	65.5	65.5	80	59.2	0	1	292	0.00	30.015 
00:50	65.2	65.2	65.2	81	59.2	0	1	292	0.00	30.015 
00:55	65.2	65.2	65.2	81	59.2	0	2	292	0.00	30.015 
01:00	65.0	65.0	65.0	81	59.0	0	1	292	0.00	30.016 
01:05	64.8	64.8	64.8	81	58.8	0	1	292	0.00	30.016 
01:10	64.7	64.7	64.7	81	58.7	0	1	292	0.00	30.016 
01:15	64.7	64.7	64.7	82	59.1	0	1	292	0.00	30.017 
01:20	64.5	64.5	64.5	82	58.9	0	1	292	0.00	30.017 
01:25	64.3	64.3	64.3	82	58.7	0	1	292	0.00	30.017 
01:30	64.3	64.3	64.3	82	58.7	0	1	292	0.00	30.027 
01:35	64.2	64.2	64.2	82	58.6	0	1	292	0.00	30.027 
01:40	64.2	64.2	64.2	82	58.6	0	1	292	0.00	30.027 
01:45	64.0	64.0	64.0	82	58.4	0	1	292	0.00	30.032 
01:50	63.9	63.9	63.9	82	58.3	0	0	---	0.00	30.032 
01:55	63.9	63.9	63.9	83	58.6	0	1	292	0.00	30.032 
02:00	63.7	63.7	63.7	83	58.4	0	1	292	0.00	30.030 
02:05	63.5	63.5	63.5	83	58.2	0	0	---	0.00	30.030 
02:10	63.4	63.4	63.4	83	58.1	0	1	292	0.00	30.030 
02:15	63.2	63.2	63.2	83	57.9	0	0	---	0.00	30.031 
02:20	63.2	63.2	63.2	83	57.9	0	1	292	0.00	30.031 
02:25	63.1	63.1	63.1	84	58.2	0	1	292	0.00	30.031 
02:30	62.9	62.9	62.9	84	58.0	0	1	292	0.00	30.033 
02:35	62.9	62.9	62.9	84	58.0	0	1	292	0.00	30.033 
02:40	62.7	62.7	62.7	84	57.8	0	1	292	0.00	30.033 
02:45	62.7	62.7	62.7	84	57.8	0	1	292	0.00	30.033 
02:50	62.6	62.6	62.6	84	57.7	0	1	292	0.00	30.033 
02:55	62.6	62.6	62.6	84	57.7	0	0	---	0.00	30.033 
03:00	62.4	62.4	62.4	84	57.5	0	1	292	0.00	30.032 
03:05	62.4	62.4	62.4	84	57.5	0	1	292	0.00	30.032 
03:10	62.3	62.3	62.3	84	57.4	0	0	---	0.00	30.032 
03:15	62.1	62.1	62.1	84	57.2	0	1	292	0.00	30.032 
03:20	62.1	62.1	62.1	85	57.5	0	0	---	0.00	30.032 
03:25	62.0	62.0	62.0	85	57.4	0	0	---	0.00	30.032 
03:30	61.8	61.8	61.8	85	57.2	0	0	---	0.00	30.032 
03:35	61.6	61.6	61.6	85	57.0	0	0	---	0.00	30.032 
03:40	61.5	61.5	61.5	86	57.3	0	0	---	0.00	30.032 
03:45	61.3	61.3	61.3	86	57.1	0	0	---	0.00	30.032 
03:50	61.3	61.3	61.3	86	57.1	0	0	---	0.00	30.032 
03:55	61.2	61.2	61.2	86	57.0	0	0	---	0.00	30.032 
04:00	61.2	61.2	61.2	86	57.0	0	0	---	0.00	30.033 
04:05	61.2	61.2	61.2	86	57.0	0	1	292	0.00	30.033 
04:10	61.0	61.0	61.0	86	56.8	0	1	292	0.00	30.033 
04:15	61.0	61.0	61.0	86	56.8	0	1	292	0.00	30.042 
04:20	61.0	61.0	61.0	86	56.8	0	1	292	0.00	30.042 
04:25	61.0	61.0	61.0	87	57.1	0	1	292	0.00	30.042 
04:30	61.0	61.0	61.0	87	57.1	0	1	292	0.00	30.035 
04:35	61.0	61.0	61.0	86	56.8	0	1	292	0.00	30.035 
04:40	61.0	61.0	61.0	86	56.8	0	0	---	0.00	30.035 
04:45	60.9	60.9	60.9	86	56.7	0	0	---	0.00	30.044 
04:50	60.9	60.9	60.9	86	56.7	0	0	---	0.00	30.044 
04:55	60.7	60.7	60.7	87	56.8	0	1	292	0.00	30.044 
05:00	60.7	60.7	60.7	87	56.8	0	1	292	0.00	30.050 
05:05	60.7	60.7	60.7	87	56.8	0	1	292	0.00	30.050 
05:10	60.5	60.5	60.5	87	56.6	0	1	292	0.00	30.050 
05:15	60.5	60.5	60.5	87	56.6	0	1	292	0.00	30.054 
05:20	60.5	60.5	60.5	87	56.6	0	1	292	0.00	30.054 
05:25	60.4	60.4	60.4	88	56.8	0	1	292	0.00	30.054 
05:30	60.4	60.4	60.4	88	56.8	0	1	292	0.00	30.059 
05:35	60.4	60.4	60.4	88	56.8	0	1	292	0.00	30.059 
05:40	60.2	60.2	60.2	88	56.6	0	0	---	0.00	30.059 
05:45	60.2	60.2	60.2	88	56.6	0	1	292	0.00	30.058 
05:50	60.1	60.1	60.1	88	56.5	0	1	292	0.00	30.058 
05:55	60.1	60.1	60.1	88	56.5	0	0	---	0.00	30.058 
06:00	59.9	59.9	59.9	88	56.3	0	1	292	0.00	30.063 
06:05	59.8	59.8	59.8	88	56.2	0	0	---	0.00	30.063 
06:10	59.8	59.8	59.8	88	56.2	0	0	---	0.00	30.063 
06:15	59.6	59.6	59.6	88	56.0	0	0	---	0.00	30.063 
06:20	59.5	59.5	59.5	88	55.9	0	0	---	0.00	30.063 
06:25	59.3	59.3	59.3	88	55.7	0	0	---	0.00	30.063 
06:30	59.2	59.2	59.2	88	55.6	0	0	---	0.00	30.067 
06:35	59.0	59.0	59.0	89	55.8	0	0	---	0.00	30.067 
06:40	59.0	59.0	59.0	89	55.8	0	0	---	0.00	30.067 
06:45	58.9	58.9	58.9	89	55.7	0	1	292	0.00	30.069 
06:50	58.9	58.9	58.9	89	55.7	0	0	---	0.00	30.069 
06:55	58.7	58.7	58.7	89	55.5	0	0	---	0.00	30.069 
07:00	58.6	58.6	58.6	89	55.4	0	0	---	0.00	30.068 
07:05	58.6	58.6	58.6	90	55.7	0	0	---	0.00	30.068 
07:10	58.4	58.4	58.4	90	55.5	0	0	---	0.00	30.068 
07:15	58.4	58.4	58.4	90	55.5	0	0	---	0.00	30.071 
07:20	58.4	58.4	58.4	90	55.5	0	0	---	0.00	30.071 
07:25	58.4	58.4	58.4	90	55.5	0	0	---	0.00	30.071 
07:30	58.6	58.6	58.6	90	55.7	0	0	---	0.00	30.075 
07:35	58.7	58.7	58.7	90	55.8	0	1	292	0.00	30.075 
07:40	58.9	58.9	58.9	90	56.0	0	0	---	0.00	30.075 
07:45	59.0	59.0	59.0	90	56.1	0	1	292	0.00	30.084 
07:50	59.2	59.2	59.2	90	56.3	0	1	292	0.00	30.084 
07:55	59.5	59.5	59.5	90	56.6	0	2	292	0.00	30.084 
08:00	59.8	59.8	59.8	89	56.5	0	1	292	0.00	30.086 
08:05	60.1	60.1	60.1	89	56.8	0	1	292	0.00	30.086 
08:10	60.4	60.4	60.4	88	56.8	0	1	292	0.00	30.086 
08:15	60.7	60.7	60.7	87	56.8	0	3	292	0.00	30.091 
08:20	61.0	61.0	61.0	86	56.8	0	3	292	0.00	30.091 
08:25	61.5	61.5	61.5	85	56.9	1	3	292	0.00	30.091 
08:30	61.8	61.8	61.8	84	56.9	0	3	292	0.00	30.091 
08:35	62.1	62.1	62.1	83	56.9	1	3	292	0.00	30.091 
08:40	62.3	62.3	62.3	82	56.7	1	4	292	0.00	30.091 
08:45	62.6	62.6	62.6	82	57.0	0	3	315	0.00	30.089 
08:50	63.1	63.1	63.1	81	57.2	0	3	315	0.00	30.089 
08:55	63.2	63.2	63.2	80	56.9	1	3	315	0.00	30.089 
09:00	63.4	63.4	63.4	79	56.8	1	4	315	0.00	30.089 
09:05	63.7	63.7	63.7	78	56.7	1	2	315	0.00	30.089 
09:10	64.0	64.0	64.0	78	57.0	1	2	315	0.00	30.089 
09:15	64.2	64.2	64.2	77	56.8	1	4	315	0.00	30.096 
09:20	64.7	64.7	64.7	78	57.7	1	6	135	0.00	30.096 
09:25	65.0	65.0	65.0	77	57.6	1	3	135	0.00	30.096 
09:30	65.3	65.3	65.3	75	57.2	1	4	135	0.00	30.099 
09:35	65.6	65.6	65.6	74	57.1	0	2	135	0.00	30.099 
09:40	66.0	66.0	66.0	75	57.8	0	2	112	0.00	30.099 
09:45	66.0	66.0	66.0	73	57.1	1	3	45	0.00	30.098 
09:50	66.3	66.3	66.3	75	58.1	0	3	338	0.00	30.098 
09:55	66.8	66.8	66.8	71	57.1	1	5	338	0.00	30.098 
10:00	66.9	66.9	66.9	72	57.6	0	2	338	0.00	30.100 
10:05	67.1	67.1	67.1	71	57.4	1	5	158	0.00	30.100 
10:10	67.4	67.4	67.4	71	57.7	1	4	315	0.00	30.100 
10:15	67.4	67.4	67.4	71	57.7	1	5	338	0.00	30.104 
10:20	67.9	67.9	67.9	70	57.7	1	3	338	0.00	30.104 
10:25	68.3	68.3	68.3	70	58.1	1	3	338	0.00	30.104 
10:30	67.9	67.9	67.9	67	56.5	1	4	315	0.00	30.103 
10:35	68.1	68.1	68.1	70	57.9	0	4	315	0.00	30.103 
10:40	68.8	68.8	68.8	68	57.8	1	5	90	0.00	30.103 
10:45	69.3	69.3	69.3	66	57.4	1	3	338	0.00	30.105 
10:50	69.3	69.3	69.3	65	57.0	1	4	315	0.00	30.105 
10:55	69.4	69.4	69.4	66	57.5	1	3	315	0.00	30.105 
11:00	69.9	69.9	69.9	66	58.0	0	2	0	0.00	30.109 
11:05	70.8	70.8	70.8	65	58.4	0	3	0	0.00	30.109 
11:10	70.6	70.6	70.6	62	56.9	2	5	315	0.00	30.109 
11:15	70.8	70.8	70.8	64	58.0	0	3	315	0.00	30.113 
11:20	70.6	70.6	70.6	62	56.9	2	5	315	0.00	30.113 
11:25	69.9	69.9	69.9	62	56.3	2	4	292	0.00	30.113 
11:30	69.6	69.6	69.6	64	56.9	2	4	292	0.00	30.113 
11:35	69.6	69.6	69.6	63	56.4	2	5	292	0.00	30.113 
11:40	69.4	69.4	69.4	65	57.1	1	5	292	0.00	30.113 
11:45	69.8	69.8	69.8	65	57.5	1	3	292	0.00	30.112 
11:50	70.6	70.6	70.6	65	58.2	1	4	292	0.00	30.112 
11:55	71.1	71.1	71.1	62	57.4	1	4	292	0.00	30.112 
12:00	70.9	70.9	70.9	62	57.2	2	6	338	0.00	30.113 
12:05	70.8	70.8	70.8	61	56.7	2	6	292	0.00	30.113 
12:10	70.4	70.4	70.4	62	56.7	1	4	292	0.00	30.113 
12:15	70.3	70.3	70.3	63	57.1	1	4	292	0.00	30.115 
12:20	70.3	70.3	70.3	62	56.7	1	4	292	0.00	30.115 
12:25	70.9	70.9	70.9	61	56.8	2	4	315	0.00	30.115 
12:30	70.9	70.9	70.9	61	56.8	2	4	315	0.00	30.110 
12:35	70.9	70.9	70.9	60	56.3	1	4	292	0.00	30.110 
12:40	71.3	71.3	71.3	62	57.6	1	3	292	0.00	30.110 
12:45	70.9	70.9	70.9	61	56.8	2	6	315	0.00	30.112 
12:50	70.8	70.8	70.8	62	57.1	1	4	315	0.00	30.112 
12:55	70.9	70.9	70.9	61	56.8	1	4	315	0.00	30.112 
13:00	71.6	71.6	71.6	61	57.4	1	4	68	0.00	30.101 
13:05	71.6	71.6	71.6	59	56.5	2	4	292	0.00	30.101 
13:10	71.6	71.6	71.6	60	57.0	1	4	315	0.00	30.101 
13:15	71.6	71.6	71.6	59	56.5	1	5	315	0.00	30.102 
13:20	71.1	71.1	71.1	60	56.5	2	4	292	0.00	30.102 
13:25	71.3	71.3	71.3	60	56.7	1	4	270	0.00	30.102 
13:30	72.0	72.0	72.0	60	57.3	0	2	270	0.00	30.100 
13:35	72.3	72.3	72.3	59	57.2	1	4	270	0.00	30.100 
13:40	72.1	72.1	72.1	58	56.5	1	4	270	0.00	30.100 
13:45	72.3	72.3	72.3	58	56.7	1	3	270	0.00	30.100 
13:50	72.0	72.0	72.0	60	57.3	2	4	292	0.00	30.100 
13:55	72.0	72.0	72.0	60	57.3	1	3	292	0.00	30.100 
14:00	72.7	72.7	72.7	57	56.6	1	3	22	0.00	30.099 
14:05	73.2	73.2	73.2	57	57.0	1	5	315	0.00	30.099 
14:10	73.5	73.5	73.5	56	56.8	2	5	315	0.00	30.099 
14:15	73.3	73.3	73.3	57	57.1	1	4	292	0.00	30.098 
14:20	73.0	73.0	73.0	57	56.9	1	4	292	0.00	30.098 
14:25	72.8	72.8	72.8	57	56.7	1	3	292	0.00	30.098 
14:30	73.2	73.2	73.2	56	56.5	1	3	292	0.00	30.095 
14:35	73.5	73.5	73.5	57	57.3	1	4	292	0.00	30.095 
14:40	73.5	73.5	73.5	56	56.8	0	3	315	0.00	30.095 
14:45	73.7	73.7	73.7	56	57.0	1	2	315	0.00	30.092 
14:50	74.2	74.2	74.2	55	57.0	1	4	315	0.00	30.092 
14:55	74.4	74.4	74.4	55	57.2	0	3	315	0.00	30.092 
15:00	74.0	74.0	74.0	55	56.8	0	2	315	0.00	30.091 
15:05	74.2	74.2	74.2	54	56.5	1	3	315	0.00	30.091 
15:10	74.4	74.4	74.4	54	56.7	1	4	68	0.00	30.091 
15:15	74.4	74.4	74.4	54	56.7	0	2	45	0.00	30.085 
15:20	74.0	74.0	74.0	54	56.3	1	4	315	0.00	30.085 
15:25	74.2	74.2	74.2	55	57.0	1	2	338	0.00	30.085 
15:30	74.7	74.7	74.7	52	55.9	1	4	338	0.00	30.081 
15:35	75.1	75.1	77.6	53	56.8	1	3	338	0.00	30.081 
15:40	75.6	75.6	77.9	52	56.7	0	2	338	0.00	30.081 
15:45	76.0	76.0	78.1	50	56.0	0	3	338	0.00	30.081 
15:50	75.8	75.8	78.0	50	55.8	1	4	292	0.00	30.081 
15:55	75.1	75.1	77.7	51	55.7	1	3	292	0.00	30.081 
16:00	74.6	74.6	74.6	52	55.8	1	3	292	0.00	30.083 
16:05	74.4	74.4	74.4	54	56.7	1	3	292	0.00	30.083 
16:10	74.6	74.6	74.6	54	56.8	0	2	315	0.00	30.083 
16:15	74.0	74.0	74.0	51	54.7	1	4	315	0.00	30.083 
16:20	73.3	73.3	73.3	53	55.1	1	3	315	0.00	30.083 
16:25	73.5	73.5	73.5	54	55.8	0	3	315	0.00	30.083 
16:30	74.4	74.4	74.4	55	57.2	0	1	315	0.00	30.074 
16:35	75.3	75.3	77.7	52	56.4	0	3	315	0.00	30.074 
16:40	75.8	75.8	78.0	49	55.3	1	3	315	0.00	30.074 
16:45	75.8	75.8	77.9	47	54.1	1	5	315	0.00	30.072 
16:50	75.3	75.3	77.7	51	55.9	1	3	315	0.00	30.072 
16:55	75.3	75.3	77.7	50	55.4	1	4	315	0.00	30.072 
17:00	75.4	75.4	77.8	48	54.3	1	3	315	0.00	30.075 
17:05	75.8	75.8	78.0	49	55.3	1	3	315	0.00	30.075 
17:10	76.3	76.3	78.2	47	54.6	1	3	315	0.00	30.075 
17:15	75.8	75.8	78.0	49	55.3	0	2	315	0.00	30.072 
17:20	75.3	75.3	77.7	51	55.9	0	3	315	0.00	30.072 
17:25	75.4	75.4	77.8	50	55.4	1	5	292	0.00	30.072 
17:30	75.3	75.3	77.7	51	55.9	1	3	292	0.00	30.072 
17:35	75.1	75.1	77.6	52	56.3	0	3	292	0.00	30.072 
17:40	75.3	75.3	77.7	52	56.4	0	3	292	0.00	30.072 
17:45	76.0	76.0	78.0	48	54.9	1	5	315	0.00	30.070 
17:50	76.0	76.0	78.0	46	53.7	1	3	315	0.00	30.070 
17:55	76.1	76.1	78.1	47	54.4	1	3	315	0.00	30.070 
18:00	75.6	75.6	77.8	46	53.3	0	2	315	0.00	30.068 
18:05	75.3	75.3	77.7	47	53.7	1	4	315	0.00	30.068 
18:10	75.3	75.3	77.7	48	54.2	0	3	315	0.00	30.068 
18:15	75.3	75.3	77.7	49	54.8	0	2	315	0.00	30.070 
18:20	75.4	75.4	77.8	49	54.9	0	3	315	0.00	30.070 
18:25	75.6	75.6	77.9	48	54.5	1	4	315	0.00	30.070 
18:30	75.6	75.6	77.9	47	53.9	1	3	315	0.00	30.065 
18:35	75.6	75.6	77.9	48	54.5	0	4	315	0.00	30.065 
18:40	75.4	75.4	77.8	46	53.2	1	3	315	0.00	30.065 
18:45	75.4	75.4	77.8	46	53.2	1	2	315	0.00	30.061 
18:50	75.3	75.3	77.7	47	53.7	0	1	315	0.00	30.061 
18:55	75.1	75.1	77.7	49	54.6	0	3	315	0.00	30.061 
19:00	75.1	75.1	77.7	47	53.5	1	4	292	0.00	30.060 
19:05	74.6	74.6	74.6	48	53.6	1	3	292	0.00	30.060 
19:10	74.6	74.6	74.6	49	54.2	1	3	292	0.00	30.060 
19:15	74.6	74.6	74.6	49	54.2	1	3	292	0.00	30.057 
19:20	74.6	74.6	74.6	49	54.2	1	3	292	0.00	30.057 
19:25	74.6	74.6	74.6	48	53.6	1	3	292	0.00	30.057 
19:30	74.6	74.6	74.6	50	54.7	0	1	292	0.00	30.059 
19:35	74.4	74.4	74.4	50	54.5	0	1	292	0.00	30.059 
19:40	74.2	74.2	74.2	50	54.3	0	1	292	0.00	30.059 
19:45	73.9	73.9	73.9	50	54.1	0	2	292	0.00	30.061 
19:50	73.9	73.9	73.9	51	54.6	0	1	292	0.00	30.061 
19:55	73.7	73.7	73.7	52	55.0	0	1	292	0.00	30.061 
20:00	73.5	73.5	73.5	53	55.3	0	1	292	0.00	30.066 
20:05	73.2	73.2	73.2	53	55.0	0	1	292	0.00	30.066 
20:10	73.2	73.2	73.2	54	55.5	0	1	292	0.00	30.066 
20:15	73.0	73.0	73.0	54	55.4	0	1	292	0.00	30.064 
20:20	72.8	72.8	72.8	54	55.2	0	0	---	0.00	30.064 
20:25	72.5	72.5	72.5	54	54.9	0	1	292	0.00	30.064 
20:30	72.3	72.3	72.3	54	54.7	0	0	---	0.00	30.061 
20:35	72.0	72.0	72.0	55	54.9	0	0	---	0.00	30.061 
20:40	71.6	71.6	71.6	56	55.1	0	0	---	0.00	30.061 
20:45	71.3	71.3	71.3	56	54.8	0	0	---	0.00	30.063 
20:50	70.9	70.9	70.9	56	54.4	0	0	---	0.00	30.063 
20:55	70.6	70.6	70.6	57	54.6	0	0	---	0.00	30.063 
21:00	70.3	70.3	70.3	58	54.8	0	0	---	0.00	30.068 
21:05	69.9	69.9	69.9	60	55.4	0	0	---	0.00	30.068 
21:10	69.4	69.4	69.4	61	55.4	0	0	---	0.00	30.068 
21:15	69.1	69.1	69.1	61	55.1	0	0	---	0.00	30.068 
21:20	68.6	68.6	68.6	62	55.0	0	0	---	0.00	30.068 
21:25	68.3	68.3	68.3	63	55.2	0	0	---	0.00	30.068 
21:30	67.8	67.8	67.8	64	55.2	0	0	---	0.00	30.068 
21:35	67.4	67.4	67.4	65	55.2	0	0	---	0.00	30.068 
21:40	67.1	67.1	67.1	66	55.4	0	0	---	0.00	30.068 
21:45	66.8	66.8	66.8	68	55.9	0	0	---	0.00	30.067 
21:50	66.4	66.4	66.4	69	55.9	0	0	---	0.00	30.067 
21:55	66.1	66.1	66.1	70	56.0	0	0	---	0.00	30.067 
22:00	65.6	65.6	65.6	71	55.9	0	0	---	0.00	30.069 
22:05	65.5	65.5	65.5	72	56.2	0	0	---	0.00	30.069 
22:10	65.2	65.2	65.2	73	56.3	0	0	---	0.00	30.069 
22:15	65.0	65.0	65.0	74	56.5	0	0	---	0.00	30.067 
22:20	64.7	64.7	64.7	75	56.6	0	0	---	0.00	30.067 
22:25	64.5	64.5	64.5	75	56.4	0	0	---	0.00	30.067 
22:30	64.2	64.2	64.2	76	56.5	0	0	---	0.00	30.062 
22:35	64.0	64.0	64.0	77	56.6	0	0	---	0.00	30.062 
22:40	63.7	63.7	63.7	77	56.3	0	0	---	0.00	30.062 
22:45	63.5	63.5	63.5	78	56.5	0	0	---	0.00	30.062 
22:50	63.4	63.4	63.4	79	56.8	0	0	---	0.00	30.062 
22:55	63.2	63.2	63.2	80	56.9	0	0	---	0.00	30.062 
23:00	62.9	62.9	62.9	80	56.6	0	0	---	0.00	30.063 
23:05	62.7	62.7	62.7	81	56.8	0	0	---	0.00	30.063 
23:10	62.6	62.6	62.6	81	56.7	0	0	---	0.00	30.063 
23:15	62.6	62.6	62.6	81	56.7	0	1	292	0.00	30.071 
23:20	62.6	62.6	62.6	82	57.0	0	0	---	0.00	30.071 
23:25	62.6	62.6	62.6	82	57.0	0	0	---	0.00	30.071 
23:30	62.7	62.7	62.7	82	57.1	0	0	---	0.00	30.075 
23:35	63.2	63.2	63.2	82	57.6	0	0	---	0.00	30.075 
23:40	63.5	63.5	63.5	81	57.6	0	1	292	0.00	30.075 
23:45	63.9	63.9	63.9	80	57.6	0	0	---	0.00	30.075 
23:50	64.0	64.0	64.0	79	57.4	0	0	---	0.00	30.075 
23:55	64.0	64.0	64.0	79	57.4	0	0	---	0.00	30.075 

CoCoRaHS
IN-AL-39
A2 Web Hosting
Creative Commons License
GoDaddy
search engine by freefind advanced

loaded 2018-11-20 14:40:24 • last modified 2010-11-18 10:43:29
Privacy PolicyDisclaimer
• wx.awcolley.com is powered by PmWiki v.2002016 •
• all content (unless otherwise noted) © 2018 A W Colley